createdAt,value
2017-07-26T00:01:48.665Z,16.00
2017-07-26T00:04:16.798Z,16.00
2017-07-26T00:06:44.966Z,16.00
2017-07-26T00:09:13.104Z,16.00
2017-07-26T00:11:41.236Z,16.00
2017-07-26T00:14:09.406Z,15.90
2017-07-26T00:16:37.535Z,15.90
2017-07-26T00:19:05.681Z,16.00
2017-07-26T00:21:33.803Z,16.00
2017-07-26T00:24:01.947Z,16.00
2017-07-26T00:26:30.819Z,16.00
2017-07-26T00:28:59.908Z,16.00
2017-07-26T00:31:28.109Z,15.90
2017-07-26T00:33:56.230Z,16.00
2017-07-26T00:36:24.388Z,16.00
2017-07-26T00:38:52.537Z,15.90
2017-07-26T00:41:20.744Z,16.00
2017-07-26T00:43:48.868Z,16.00
2017-07-26T00:46:16.996Z,16.00
2017-07-26T00:48:45.154Z,16.00
2017-07-26T00:51:14.043Z,16.00
2017-07-26T00:53:42.208Z,15.90
2017-07-26T00:56:10.351Z,15.90
2017-07-26T00:58:38.501Z,16.00
2017-07-26T01:01:06.669Z,16.00
2017-07-26T01:03:34.785Z,15.90
2017-07-26T01:06:02.926Z,15.90
2017-07-26T01:08:31.067Z,15.80
2017-07-26T01:10:59.275Z,15.80
2017-07-26T01:13:27.404Z,15.90
2017-07-26T01:15:55.582Z,15.80
2017-07-26T01:18:23.732Z,15.80
2017-07-26T01:20:52.656Z,15.80
2017-07-26T01:23:20.930Z,15.80
2017-07-26T01:25:49.054Z,15.80
2017-07-26T01:28:17.198Z,15.80
2017-07-26T01:30:45.456Z,15.90
2017-07-26T01:33:13.639Z,15.90
2017-07-26T01:35:41.816Z,15.80
2017-07-26T01:38:10.730Z,15.80
2017-07-26T01:40:38.904Z,15.80
2017-07-26T01:43:07.030Z,15.80
2017-07-26T01:45:35.173Z,15.80
2017-07-26T01:48:03.346Z,15.80
2017-07-26T01:50:31.491Z,15.80
2017-07-26T01:52:59.629Z,15.80
2017-07-26T01:55:27.756Z,15.70
2017-07-26T01:57:55.959Z,15.80
2017-07-26T02:00:24.882Z,15.70
2017-07-26T02:02:53.016Z,15.70
2017-07-26T02:05:21.168Z,15.70
2017-07-26T02:07:49.322Z,15.70
2017-07-26T02:10:17.488Z,15.70
2017-07-26T02:12:45.644Z,15.70
2017-07-26T02:15:13.838Z,15.80
2017-07-26T02:17:41.958Z,15.80
2017-07-26T02:20:10.159Z,15.70
2017-07-26T02:22:38.355Z,15.70
2017-07-26T02:25:06.696Z,15.70
2017-07-26T02:27:34.890Z,15.70
2017-07-26T02:30:03.086Z,15.70
2017-07-26T02:32:31.271Z,15.70
2017-07-26T02:34:59.471Z,15.70
2017-07-26T02:37:27.709Z,15.70
2017-07-26T02:39:55.980Z,15.70
2017-07-26T02:42:24.151Z,15.70
2017-07-26T02:44:52.293Z,15.70
2017-07-26T02:47:20.446Z,15.70
2017-07-26T02:49:48.669Z,15.70
2017-07-26T02:52:16.843Z,15.70
2017-07-26T02:54:45.020Z,15.70
2017-07-26T02:57:13.191Z,15.70
2017-07-26T02:59:42.156Z,15.70
2017-07-26T03:02:11.072Z,15.60
2017-07-26T03:04:39.345Z,15.60
2017-07-26T03:07:08.260Z,15.60
2017-07-26T03:09:37.232Z,15.70
2017-07-26T03:12:05.426Z,15.70
2017-07-26T03:14:33.616Z,15.70
2017-07-26T03:17:01.762Z,15.80
2017-07-26T03:19:29.932Z,15.80
2017-07-26T03:21:58.110Z,15.80
2017-07-26T03:24:26.285Z,15.80
2017-07-26T03:26:54.509Z,15.80
2017-07-26T03:29:22.755Z,15.80
2017-07-26T03:31:50.935Z,15.90
2017-07-26T03:34:19.100Z,15.80
2017-07-26T03:36:47.307Z,15.80
2017-07-26T03:39:15.428Z,15.80
2017-07-26T03:41:43.549Z,15.90
2017-07-26T03:44:11.725Z,15.90
2017-07-26T03:46:39.899Z,15.90
2017-07-26T03:49:08.042Z,16.00
2017-07-26T03:51:36.277Z,15.90
2017-07-26T03:54:04.405Z,16.00
2017-07-26T03:56:32.521Z,15.90
2017-07-26T03:59:00.673Z,15.90
2017-07-26T04:01:28.822Z,16.00
2017-07-26T04:03:56.944Z,15.90
2017-07-26T04:06:25.113Z,15.90
2017-07-26T04:08:54.110Z,16.00
2017-07-26T04:11:22.287Z,16.00
2017-07-26T04:13:50.463Z,16.00
2017-07-26T04:16:18.589Z,15.90
2017-07-26T04:18:46.738Z,15.90
2017-07-26T04:21:15.597Z,16.00
2017-07-26T04:23:43.770Z,16.00
2017-07-26T04:26:11.898Z,15.90
2017-07-26T04:28:40.120Z,16.00
2017-07-26T04:31:08.342Z,16.00
2017-07-26T04:33:36.477Z,16.00
2017-07-26T04:36:04.620Z,16.00
2017-07-26T04:38:32.777Z,16.00
2017-07-26T04:41:00.954Z,16.00
2017-07-26T04:43:29.090Z,16.00
2017-07-26T04:45:57.233Z,16.00
2017-07-26T04:48:25.351Z,16.00
2017-07-26T04:50:53.502Z,16.00
2017-07-26T04:53:21.634Z,16.00
2017-07-26T04:55:49.769Z,16.00
2017-07-26T04:58:17.986Z,16.00
2017-07-26T05:00:46.121Z,16.00
2017-07-26T05:03:14.362Z,16.00
2017-07-26T05:05:42.575Z,15.90
2017-07-26T05:08:10.755Z,15.90
2017-07-26T05:10:38.956Z,15.90
2017-07-26T05:13:07.103Z,16.00
2017-07-26T05:15:35.317Z,15.90
2017-07-26T05:18:03.499Z,16.00
2017-07-26T05:20:31.627Z,15.90
2017-07-26T05:22:59.763Z,15.90
2017-07-26T05:25:27.926Z,15.90
2017-07-26T05:27:56.071Z,15.90
2017-07-26T05:30:24.186Z,15.90
2017-07-26T05:32:52.342Z,15.90
2017-07-26T05:35:20.452Z,15.90
2017-07-26T05:37:48.590Z,15.90
2017-07-26T05:40:17.496Z,15.90
2017-07-26T05:42:45.601Z,15.90
2017-07-26T05:45:13.739Z,15.90
2017-07-26T05:47:41.884Z,15.90
2017-07-26T05:50:10.781Z,15.90
2017-07-26T05:52:38.918Z,15.90
2017-07-26T05:55:07.059Z,16.00
2017-07-26T05:57:35.956Z,16.00
2017-07-26T06:00:04.109Z,15.90
2017-07-26T06:02:32.219Z,16.10
2017-07-26T06:05:00.377Z,16.10
2017-07-26T06:07:28.523Z,16.10
2017-07-26T06:09:56.649Z,16.10
2017-07-26T06:12:24.798Z,16.10
2017-07-26T06:14:52.998Z,16.10
2017-07-26T06:17:22.053Z,16.10
2017-07-26T06:19:50.963Z,16.10
2017-07-26T06:22:19.136Z,16.10
2017-07-26T06:24:47.283Z,16.10
2017-07-26T06:27:15.431Z,16.10
2017-07-26T06:29:43.606Z,16.10
2017-07-26T06:32:11.772Z,16.10
2017-07-26T06:34:39.915Z,16.10
2017-07-26T06:37:08.054Z,16.10
2017-07-26T06:39:36.209Z,16.10
2017-07-26T06:42:04.371Z,16.10
2017-07-26T06:44:32.516Z,16.10
2017-07-26T06:47:01.425Z,16.20
2017-07-26T06:49:29.556Z,16.10
2017-07-26T06:51:57.709Z,16.20
2017-07-26T06:54:25.836Z,16.20
2017-07-26T06:56:53.957Z,16.20
2017-07-26T06:59:22.106Z,16.10
2017-07-26T07:01:50.219Z,16.10
2017-07-26T07:04:19.120Z,16.20
2017-07-26T07:06:47.288Z,16.10
2017-07-26T07:09:15.501Z,16.20
2017-07-26T07:11:43.655Z,16.20
2017-07-26T07:14:11.814Z,16.20
2017-07-26T07:16:40.628Z,16.20
2017-07-26T07:19:09.369Z,16.20
2017-07-26T07:21:37.731Z,16.30
2017-07-26T07:24:05.850Z,16.20
2017-07-26T07:26:34.071Z,16.30
2017-07-26T07:29:02.211Z,16.30
2017-07-26T07:31:30.341Z,16.30
2017-07-26T07:33:58.585Z,16.40
2017-07-26T07:36:27.501Z,16.40
2017-07-26T07:38:55.671Z,16.30
2017-07-26T07:41:23.790Z,16.50
2017-07-26T07:43:51.952Z,16.50
2017-07-26T07:46:20.077Z,16.50
2017-07-26T07:48:48.203Z,16.60
2017-07-26T07:51:16.369Z,16.60
2017-07-26T07:53:44.502Z,16.70
2017-07-26T07:56:12.646Z,16.70
2017-07-26T07:58:40.799Z,16.80
2017-07-26T08:01:09.444Z,16.90
2017-07-26T08:03:37.551Z,16.90
2017-07-26T08:06:05.726Z,17.00
2017-07-26T08:08:33.919Z,17.10
2017-07-26T08:11:02.059Z,17.10
2017-07-26T08:13:30.225Z,17.20
2017-07-26T08:15:58.352Z,17.20
2017-07-26T08:18:26.514Z,17.20
2017-07-26T08:20:54.686Z,17.30
2017-07-26T08:23:22.799Z,17.30
2017-07-26T08:25:50.974Z,17.40
2017-07-26T08:28:19.130Z,17.40
2017-07-26T08:30:47.271Z,17.60
2017-07-26T08:33:16.170Z,17.50
2017-07-26T08:35:44.343Z,17.40
2017-07-26T08:38:12.556Z,17.40
2017-07-26T08:40:40.735Z,17.50
2017-07-26T08:43:08.889Z,17.50
2017-07-26T08:45:37.065Z,17.40
2017-07-26T08:48:05.953Z,17.60
2017-07-26T08:50:34.122Z,17.50
2017-07-26T08:53:02.290Z,17.50
2017-07-26T08:55:30.436Z,17.50
2017-07-26T08:57:58.587Z,17.60
2017-07-26T09:00:26.722Z,17.60
2017-07-26T09:02:54.861Z,17.70
2017-07-26T09:05:23.008Z,17.60
2017-07-26T09:07:51.204Z,17.60
2017-07-26T09:10:19.389Z,17.70
2017-07-26T09:12:47.629Z,17.70
2017-07-26T09:15:15.759Z,17.80
2017-07-26T09:17:43.902Z,17.80
2017-07-26T09:20:12.066Z,17.80
2017-07-26T09:22:40.189Z,17.90
2017-07-26T09:25:08.338Z,18.00
2017-07-26T09:27:36.486Z,18.00
2017-07-26T09:30:04.633Z,18.00
2017-07-26T09:32:32.764Z,17.90
2017-07-26T09:35:00.933Z,18.00
2017-07-26T09:37:29.094Z,18.00
2017-07-26T09:39:59.593Z,18.20
2017-07-26T09:42:27.795Z,18.10
2017-07-26T09:44:55.925Z,18.30
2017-07-26T09:47:24.050Z,18.30
2017-07-26T09:49:52.224Z,18.30
2017-07-26T09:52:20.345Z,18.30
2017-07-26T09:54:49.226Z,18.40
2017-07-26T09:57:17.401Z,18.30
2017-07-26T09:59:45.560Z,18.40
2017-07-26T10:02:13.710Z,18.40
2017-07-26T10:04:41.883Z,18.40
2017-07-26T10:07:10.028Z,18.40
2017-07-26T10:09:38.179Z,18.30
2017-07-26T10:12:07.446Z,18.40
2017-07-26T10:14:36.267Z,18.40
2017-07-26T10:17:04.411Z,18.40
2017-07-26T10:19:33.377Z,18.60
2017-07-26T10:22:01.498Z,18.60
2017-07-26T10:24:29.620Z,18.70
2017-07-26T10:26:57.775Z,18.60
2017-07-26T10:29:25.946Z,18.60
2017-07-26T10:31:54.091Z,18.50
2017-07-26T10:34:22.258Z,18.50
2017-07-26T10:36:50.405Z,18.50
2017-07-26T10:39:18.551Z,18.50
2017-07-26T10:41:46.732Z,18.70
2017-07-26T10:44:14.912Z,18.70
2017-07-26T10:46:43.049Z,18.70
2017-07-26T10:49:11.958Z,18.70
2017-07-26T10:51:40.089Z,18.60
2017-07-26T10:54:08.269Z,18.70
2017-07-26T10:56:37.156Z,18.50
2017-07-26T10:59:05.306Z,18.40
2017-07-26T11:01:33.457Z,18.40
2017-07-26T11:04:02.349Z,18.40
2017-07-26T11:06:30.497Z,18.40
2017-07-26T11:08:58.665Z,18.30
2017-07-26T11:11:27.574Z,18.40
2017-07-26T11:13:55.756Z,18.30
2017-07-26T11:16:23.917Z,18.50
2017-07-26T11:18:52.054Z,18.50
2017-07-26T11:21:20.913Z,18.50
2017-07-26T11:23:49.081Z,18.70
2017-07-26T11:26:17.208Z,18.70
2017-07-26T11:28:45.366Z,18.60
2017-07-26T11:31:13.568Z,18.50
2017-07-26T11:33:41.704Z,18.50
2017-07-26T11:36:09.865Z,18.40
2017-07-26T11:38:38.028Z,18.30
2017-07-26T11:41:06.145Z,18.30
2017-07-26T11:43:34.285Z,18.40
2017-07-26T11:46:02.446Z,18.40
2017-07-26T11:48:30.564Z,18.50
2017-07-26T11:50:58.691Z,18.50
2017-07-26T11:53:26.899Z,18.50
2017-07-26T11:55:55.047Z,18.40
2017-07-26T11:58:23.196Z,18.30
2017-07-26T12:00:51.362Z,18.40
2017-07-26T12:03:19.472Z,18.30
2017-07-26T12:05:47.626Z,18.40
2017-07-26T12:08:15.948Z,18.40
2017-07-26T12:10:44.074Z,18.40
2017-07-26T12:13:12.196Z,18.40
2017-07-26T12:15:40.374Z,18.50
2017-07-26T12:18:08.498Z,18.70
2017-07-26T12:20:36.650Z,18.90
2017-07-26T12:23:04.824Z,19.10
2017-07-26T12:25:32.967Z,19.10
2017-07-26T12:28:01.893Z,19.10
2017-07-26T12:30:30.848Z,19.30
2017-07-26T12:32:58.972Z,19.30
2017-07-26T12:35:27.117Z,19.50
2017-07-26T12:37:55.310Z,19.80
2017-07-26T12:40:23.435Z,20.00
2017-07-26T12:42:51.576Z,20.20
2017-07-26T12:45:19.756Z,20.20
2017-07-26T12:47:47.927Z,19.90
2017-07-26T12:50:16.079Z,19.70
2017-07-26T12:52:44.255Z,19.60
2017-07-26T12:55:12.380Z,19.60
2017-07-26T12:57:41.355Z,19.30
2017-07-26T13:00:09.537Z,19.20
2017-07-26T13:02:37.709Z,19.20
2017-07-26T13:05:05.853Z,19.30
2017-07-26T13:07:34.030Z,19.40
2017-07-26T13:10:02.158Z,19.30
2017-07-26T13:12:30.292Z,19.10
2017-07-26T13:14:58.458Z,19.00
2017-07-26T13:17:26.601Z,19.00
2017-07-26T13:19:54.741Z,19.00
2017-07-26T13:22:22.910Z,19.00
2017-07-26T13:24:51.051Z,19.00
2017-07-26T13:27:19.213Z,19.00
2017-07-26T13:29:47.392Z,19.00
2017-07-26T13:32:15.503Z,19.00
2017-07-26T13:34:43.632Z,19.00
2017-07-26T13:37:11.818Z,19.10
2017-07-26T13:39:39.991Z,19.10
2017-07-26T13:42:08.463Z,19.10
2017-07-26T13:44:36.616Z,19.10
2017-07-26T13:47:04.765Z,19.00
2017-07-26T13:49:32.957Z,19.10
2017-07-26T13:52:01.163Z,19.00
2017-07-26T13:54:29.336Z,19.00
2017-07-26T13:56:57.512Z,18.90
2017-07-26T13:59:25.708Z,19.00
2017-07-26T14:01:54.317Z,19.00
2017-07-26T14:04:22.512Z,19.00
2017-07-26T14:06:51.653Z,19.10
2017-07-26T14:09:19.864Z,19.10
2017-07-26T14:11:48.046Z,19.10
2017-07-26T14:14:16.197Z,19.10
2017-07-26T14:16:44.396Z,19.10
2017-07-26T14:19:12.613Z,19.10
2017-07-26T14:21:40.821Z,19.20
2017-07-26T14:24:08.993Z,19.20
2017-07-26T14:26:37.135Z,19.20
2017-07-26T14:29:05.289Z,19.20
2017-07-26T14:31:34.219Z,19.40
2017-07-26T14:34:02.382Z,19.30
2017-07-26T14:36:30.560Z,19.40
2017-07-26T14:38:58.806Z,19.30
2017-07-26T14:41:27.553Z,19.40
2017-07-26T14:43:55.694Z,19.40
2017-07-26T14:46:23.926Z,19.50
2017-07-26T14:48:52.094Z,19.60
2017-07-26T14:51:20.268Z,19.60
2017-07-26T14:53:48.432Z,19.70
2017-07-26T14:56:16.586Z,19.80
2017-07-26T14:58:45.726Z,19.90
2017-07-26T15:01:14.652Z,19.80
2017-07-26T15:03:42.824Z,19.80
2017-07-26T15:06:10.999Z,20.00
2017-07-26T15:08:39.214Z,20.00
2017-07-26T15:11:07.361Z,20.00
2017-07-26T15:13:35.521Z,19.90
2017-07-26T15:16:03.799Z,20.00
2017-07-26T15:18:32.000Z,20.10
2017-07-26T15:21:00.159Z,20.10
2017-07-26T15:23:28.337Z,20.00
2017-07-26T15:25:56.545Z,20.00
2017-07-26T15:28:24.672Z,20.00
2017-07-26T15:30:52.843Z,20.10
2017-07-26T15:33:20.998Z,20.10
2017-07-26T15:35:49.142Z,20.20
2017-07-26T15:38:17.265Z,20.20
2017-07-26T15:40:46.000Z,20.20
2017-07-26T15:43:14.212Z,20.10
2017-07-26T15:45:42.352Z,20.00
2017-07-26T15:48:11.577Z,20.10
2017-07-26T15:50:39.717Z,20.10
2017-07-26T15:53:08.638Z,20.30
2017-07-26T15:55:36.812Z,20.30
2017-07-26T15:58:04.994Z,20.50
2017-07-26T16:00:33.918Z,20.20
2017-07-26T16:03:02.845Z,20.10
2017-07-26T16:05:31.013Z,20.10
2017-07-26T16:07:59.135Z,20.10
2017-07-26T16:10:27.312Z,20.10
2017-07-26T16:12:55.502Z,20.00
2017-07-26T16:15:23.648Z,19.90
2017-07-26T16:17:52.551Z,19.90
2017-07-26T16:20:21.585Z,19.80
2017-07-26T16:22:49.721Z,19.90
2017-07-26T16:25:17.837Z,19.90
2017-07-26T16:27:46.013Z,19.80
2017-07-26T16:30:14.137Z,19.80
2017-07-26T16:32:43.030Z,19.80
2017-07-26T16:35:11.192Z,19.70
2017-07-26T16:37:39.347Z,19.80
2017-07-26T16:40:07.487Z,19.70
2017-07-26T16:42:35.660Z,19.70
2017-07-26T16:45:03.784Z,19.70
2017-07-26T16:47:33.812Z,19.60
2017-07-26T16:50:01.975Z,19.50
2017-07-26T16:52:30.129Z,19.50
2017-07-26T16:54:58.282Z,19.60
2017-07-26T16:57:26.468Z,19.60
2017-07-26T16:59:54.667Z,19.60
2017-07-26T17:02:22.861Z,19.60
2017-07-26T17:04:51.022Z,19.70
2017-07-26T17:07:19.146Z,19.70
2017-07-26T17:09:47.642Z,19.70
2017-07-26T17:12:15.958Z,19.70
2017-07-26T17:14:44.113Z,19.70
2017-07-26T17:17:12.284Z,19.70
2017-07-26T17:19:40.425Z,19.70
2017-07-26T17:22:08.560Z,19.70
2017-07-26T17:24:36.707Z,19.70
2017-07-26T17:27:04.835Z,19.60
2017-07-26T17:29:32.965Z,19.60
2017-07-26T17:32:01.136Z,19.50
2017-07-26T17:34:29.281Z,19.60
2017-07-26T17:36:57.395Z,19.60
2017-07-26T17:39:25.547Z,19.60
2017-07-26T17:41:53.651Z,19.60
2017-07-26T17:44:21.813Z,19.60
2017-07-26T17:46:49.963Z,19.50
2017-07-26T17:49:18.072Z,19.50
2017-07-26T17:51:46.196Z,19.30
2017-07-26T17:54:14.389Z,19.30
2017-07-26T17:56:42.520Z,19.30
2017-07-26T17:59:10.689Z,19.30
2017-07-26T18:01:38.835Z,19.20
2017-07-26T18:04:06.950Z,19.10
2017-07-26T18:06:35.114Z,19.10
2017-07-26T18:09:03.259Z,19.20
2017-07-26T18:11:31.399Z,19.20
2017-07-26T18:13:59.537Z,19.40
2017-07-26T18:16:27.694Z,19.40
2017-07-26T18:18:56.594Z,19.30
2017-07-26T18:21:24.785Z,19.20
2017-07-26T18:23:53.787Z,19.10
2017-07-26T18:26:22.064Z,19.10
2017-07-26T18:28:50.198Z,19.10
2017-07-26T18:31:18.352Z,19.00
2017-07-26T18:33:46.493Z,18.90
2017-07-26T18:36:14.619Z,19.00
2017-07-26T18:38:42.782Z,19.00
2017-07-26T18:41:11.766Z,18.80
2017-07-26T18:43:40.032Z,18.80
2017-07-26T18:46:08.220Z,18.70
2017-07-26T18:48:36.383Z,18.70
2017-07-26T18:51:04.527Z,18.70
2017-07-26T18:53:32.680Z,18.70
2017-07-26T18:56:00.818Z,18.70
2017-07-26T18:58:28.958Z,18.70
2017-07-26T19:00:58.803Z,18.60
2017-07-26T19:03:26.975Z,18.60
2017-07-26T19:05:55.872Z,18.60
2017-07-26T19:08:24.026Z,18.60
2017-07-26T19:10:52.155Z,18.60
2017-07-26T19:13:20.362Z,18.60
2017-07-26T19:15:49.268Z,18.40
2017-07-26T19:18:18.184Z,18.40
2017-07-26T19:20:46.359Z,18.50
2017-07-26T19:23:14.500Z,18.50
2017-07-26T19:25:42.632Z,18.50
2017-07-26T19:28:10.921Z,18.50
2017-07-26T19:30:39.048Z,18.40
2017-07-26T19:33:07.180Z,18.30
2017-07-26T19:35:35.328Z,18.40
2017-07-26T19:38:03.465Z,18.30
2017-07-26T19:40:31.590Z,18.40
2017-07-26T19:42:59.754Z,18.40
2017-07-26T19:45:27.915Z,18.30
2017-07-26T19:47:56.818Z,18.20
2017-07-26T19:50:24.967Z,18.20
2017-07-26T19:52:53.827Z,18.10
2017-07-26T19:55:21.988Z,18.10
2017-07-26T19:57:50.162Z,18.10
2017-07-26T20:00:18.464Z,18.00
2017-07-26T20:02:46.633Z,17.90
2017-07-26T20:05:14.804Z,17.80
2017-07-26T20:07:42.913Z,17.80
2017-07-26T20:10:11.042Z,17.70
2017-07-26T20:12:39.200Z,17.70
2017-07-26T20:15:07.405Z,17.70
2017-07-26T20:17:35.642Z,17.70
2017-07-26T20:20:03.782Z,17.60
2017-07-26T20:22:32.796Z,17.50
2017-07-26T20:25:00.921Z,17.50
2017-07-26T20:27:29.962Z,17.40
2017-07-26T20:29:58.102Z,17.40
2017-07-26T20:32:26.221Z,17.40
2017-07-26T20:34:54.373Z,17.40
2017-07-26T20:37:23.202Z,17.40
2017-07-26T20:39:51.349Z,17.40
2017-07-26T20:42:19.540Z,17.40
2017-07-26T20:44:47.689Z,17.30
2017-07-26T20:47:15.867Z,17.30
2017-07-26T20:49:44.059Z,17.30
2017-07-26T20:52:12.178Z,17.30
2017-07-26T20:54:40.345Z,17.30
2017-07-26T20:57:08.576Z,17.30
2017-07-26T20:59:36.711Z,17.20
2017-07-26T21:02:05.919Z,17.10
2017-07-26T21:04:34.044Z,17.10
2017-07-26T21:07:02.188Z,17.10
2017-07-26T21:09:30.339Z,17.00
2017-07-26T21:11:58.489Z,17.00
2017-07-26T21:14:26.659Z,16.90
2017-07-26T21:16:54.824Z,16.90
2017-07-26T21:19:23.049Z,16.90
2017-07-26T21:21:51.992Z,16.80
2017-07-26T21:24:20.124Z,16.80
2017-07-26T21:26:48.258Z,16.90
2017-07-26T21:29:16.437Z,16.90
2017-07-26T21:31:45.071Z,16.90
2017-07-26T21:34:13.254Z,16.90
2017-07-26T21:36:41.412Z,16.90
2017-07-26T21:39:09.522Z,16.90
2017-07-26T21:41:38.095Z,17.00
2017-07-26T21:44:06.300Z,17.00
2017-07-26T21:46:34.465Z,17.00
2017-07-26T21:49:02.591Z,17.00
2017-07-26T21:51:30.746Z,17.00
2017-07-26T21:53:58.897Z,17.00
2017-07-26T21:56:27.123Z,17.00
2017-07-26T21:58:55.284Z,17.00
2017-07-26T22:01:23.464Z,17.00
2017-07-26T22:03:51.594Z,16.90
2017-07-26T22:06:19.752Z,17.00
2017-07-26T22:08:47.906Z,17.00
2017-07-26T22:11:16.838Z,17.00
2017-07-26T22:13:45.402Z,16.90
2017-07-26T22:16:13.559Z,17.00
2017-07-26T22:18:41.712Z,17.00
2017-07-26T22:21:09.885Z,17.00
2017-07-26T22:23:38.028Z,17.00
2017-07-26T22:26:06.186Z,17.00
2017-07-26T22:28:34.353Z,17.00
2017-07-26T22:31:02.487Z,17.00
2017-07-26T22:33:30.644Z,17.00
2017-07-26T22:35:58.791Z,17.00
2017-07-26T22:38:26.944Z,17.00
2017-07-26T22:40:55.092Z,17.00
2017-07-26T22:43:23.256Z,17.00
2017-07-26T22:45:51.427Z,17.00
2017-07-26T22:48:19.578Z,17.10
2017-07-26T22:50:47.744Z,17.10
2017-07-26T22:53:17.254Z,17.10
2017-07-26T22:55:45.478Z,17.20
2017-07-26T22:58:13.684Z,17.20
2017-07-26T23:00:41.802Z,17.20
2017-07-26T23:03:09.948Z,17.20
2017-07-26T23:05:38.110Z,17.20
2017-07-26T23:08:06.241Z,17.20
2017-07-26T23:10:34.390Z,17.30
2017-07-26T23:13:02.543Z,17.30
2017-07-26T23:15:31.561Z,17.20
2017-07-26T23:17:59.721Z,17.20
2017-07-26T23:20:27.887Z,17.20
2017-07-26T23:22:56.055Z,17.30
2017-07-26T23:25:24.190Z,17.30
2017-07-26T23:27:52.349Z,17.30
2017-07-26T23:30:20.932Z,17.30
2017-07-26T23:32:49.065Z,17.30
2017-07-26T23:35:17.369Z,17.20
2017-07-26T23:37:45.522Z,17.10
2017-07-26T23:40:13.644Z,17.00
2017-07-26T23:42:41.825Z,17.00
2017-07-26T23:45:09.983Z,16.90
2017-07-26T23:47:38.107Z,16.90
2017-07-26T23:50:06.303Z,16.90
2017-07-26T23:52:35.420Z,16.90
2017-07-26T23:55:03.527Z,16.90
2017-07-26T23:57:31.803Z,16.90
2017-07-26T23:59:59.969Z,16.90
